createdAt,value
2023-04-12T00:01:20.085Z,99.90
2023-04-12T00:03:51.020Z,99.90
2023-04-12T00:06:19.089Z,99.90
2023-04-12T00:08:46.940Z,99.90
2023-04-12T00:11:14.524Z,99.90
2023-04-12T00:13:42.016Z,99.90
2023-04-12T00:16:10.106Z,99.90
2023-04-12T00:18:37.766Z,99.90
2023-04-12T00:21:05.576Z,99.90
2023-04-12T00:23:33.830Z,99.90
2023-04-12T00:26:01.325Z,99.90
2023-04-12T00:28:28.859Z,99.90
2023-04-12T00:30:56.468Z,99.90
2023-04-12T00:33:24.047Z,99.90
2023-04-12T00:35:51.766Z,99.90
2023-04-12T00:38:19.517Z,99.90
2023-04-12T00:40:47.016Z,99.90
2023-04-12T00:43:18.932Z,99.90
2023-04-12T00:45:47.809Z,99.90
2023-04-12T00:48:16.269Z,99.90
2023-04-12T00:50:47.619Z,99.90
2023-04-12T00:53:15.758Z,99.90
2023-04-12T00:55:44.983Z,99.90
2023-04-12T00:58:14.204Z,99.90
2023-04-12T01:00:42.184Z,99.90
2023-04-12T01:03:09.961Z,99.90
2023-04-12T01:06:09.614Z,99.90
2023-04-12T01:09:08.335Z,99.90
2023-04-12T01:11:44.983Z,99.90
2023-04-12T01:14:22.973Z,99.90
2023-04-12T01:16:58.138Z,99.90
2023-04-12T01:19:36.067Z,99.90
2023-04-12T01:22:22.924Z,99.90
2023-04-12T01:24:59.458Z,99.90
2023-04-12T01:27:48.403Z,99.90
2023-04-12T01:30:19.518Z,99.90
2023-04-12T01:32:53.335Z,99.90
2023-04-12T01:35:22.810Z,99.90
2023-04-12T01:37:50.667Z,99.90
2023-04-12T01:40:19.421Z,99.90
2023-04-12T01:42:46.915Z,99.90
2023-04-12T01:45:14.894Z,99.90
2023-04-12T01:47:43.111Z,99.90
2023-04-12T01:50:22.771Z,99.90
2023-04-12T01:53:09.342Z,99.90
2023-04-12T01:55:39.979Z,99.90
2023-04-12T01:58:09.339Z,99.90
2023-04-12T02:00:37.746Z,99.90
2023-04-12T02:03:06.824Z,99.90
2023-04-12T02:05:34.781Z,99.90
2023-04-12T02:08:02.968Z,99.90
2023-04-12T02:10:32.252Z,99.90
2023-04-12T02:13:03.704Z,99.90
2023-04-12T02:15:31.373Z,99.90
2023-04-12T02:18:00.533Z,99.90
2023-04-12T02:20:28.497Z,99.90
2023-04-12T02:22:56.145Z,99.90
2023-04-12T02:25:23.813Z,99.90
2023-04-12T02:27:51.532Z,99.90
2023-04-12T02:30:19.138Z,99.90
2023-04-12T02:32:53.654Z,99.90
2023-04-12T02:35:28.590Z,99.90
2023-04-12T02:38:03.951Z,99.90
2023-04-12T02:40:31.542Z,99.90
2023-04-12T02:42:59.472Z,99.90
2023-04-12T02:45:27.669Z,99.90
2023-04-12T02:47:56.545Z,99.90
2023-04-12T02:50:29.490Z,99.90
2023-04-12T02:53:04.785Z,99.90
2023-04-12T02:55:32.799Z,99.90
2023-04-12T02:58:03.275Z,99.90
2023-04-12T03:00:31.080Z,99.90
2023-04-12T03:03:03.087Z,99.90
2023-04-12T03:05:32.298Z,99.90
2023-04-12T03:08:01.136Z,99.90
2023-04-12T03:10:38.414Z,99.90
2023-04-12T03:13:06.665Z,99.90
2023-04-12T03:15:37.091Z,99.90
2023-04-12T03:18:05.054Z,99.90
2023-04-12T03:20:46.048Z,99.90
2023-04-12T03:23:15.968Z,99.90
2023-04-12T03:25:46.791Z,99.90
2023-04-12T03:28:32.798Z,99.90
2023-04-12T03:31:02.971Z,99.90
2023-04-12T03:33:48.503Z,99.90
2023-04-12T03:36:23.395Z,99.90
2023-04-12T03:38:58.748Z,99.90
2023-04-12T03:41:28.342Z,99.90
2023-04-12T03:43:56.381Z,99.90
2023-04-12T03:46:24.190Z,99.90
2023-04-12T03:48:57.323Z,99.90
2023-04-12T03:51:27.015Z,99.90
2023-04-12T03:54:02.815Z,99.90
2023-04-12T03:56:36.633Z,99.90
2023-04-12T03:59:07.911Z,99.90
2023-04-12T04:01:36.830Z,99.90
2023-04-12T04:04:05.445Z,99.90
2023-04-12T04:06:34.333Z,99.90
2023-04-12T04:09:02.239Z,99.90
2023-04-12T04:11:33.914Z,99.90
2023-04-12T04:14:07.039Z,99.90
2023-04-12T04:16:34.958Z,99.90
2023-04-12T04:19:05.011Z,99.90
2023-04-12T04:21:32.752Z,99.90
2023-04-12T04:24:01.308Z,99.90
2023-04-12T04:26:33.746Z,99.90
2023-04-12T04:29:29.129Z,99.90
2023-04-12T04:31:58.682Z,99.90
2023-04-12T04:34:27.210Z,99.90
2023-04-12T04:37:03.456Z,99.90
2023-04-12T04:39:30.977Z,99.90
2023-04-12T04:42:00.133Z,99.90
2023-04-12T04:44:36.169Z,99.90
2023-04-12T04:47:08.689Z,99.90
2023-04-12T04:49:37.854Z,99.90
2023-04-12T04:52:15.476Z,99.90
2023-04-12T04:54:43.092Z,99.90
2023-04-12T04:57:11.701Z,99.90
2023-04-12T04:59:41.012Z,99.90
2023-04-12T05:02:16.717Z,99.90
2023-04-12T05:04:45.606Z,99.90
2023-04-12T05:07:16.539Z,99.90
2023-04-12T05:09:46.545Z,99.90
2023-04-12T05:12:14.392Z,99.90
2023-04-12T05:14:49.807Z,99.90
2023-04-12T05:17:19.249Z,99.90
2023-04-12T05:19:46.824Z,99.90
2023-04-12T05:22:14.641Z,99.90
2023-04-12T05:24:42.371Z,99.90
2023-04-12T05:27:09.974Z,99.90
2023-04-12T05:29:37.834Z,99.90
2023-04-12T05:32:07.983Z,99.90
2023-04-12T05:34:37.715Z,99.90
2023-04-12T05:37:05.501Z,99.90
2023-04-12T05:39:37.549Z,99.90
2023-04-12T05:42:06.050Z,99.90
2023-04-12T05:44:36.907Z,99.90
2023-04-12T05:47:06.105Z,99.90
2023-04-12T05:49:33.633Z,99.90
2023-04-12T05:52:05.678Z,99.90
2023-04-12T05:54:33.751Z,99.90
2023-04-12T05:57:01.270Z,99.90
2023-04-12T05:59:30.903Z,99.90
2023-04-12T06:01:59.145Z,99.90
2023-04-12T06:04:42.017Z,99.90
2023-04-12T06:07:12.072Z,99.90
2023-04-12T06:09:39.593Z,99.90
2023-04-12T06:12:07.303Z,99.90
2023-04-12T06:14:36.586Z,99.90
2023-04-12T06:17:04.628Z,99.90
2023-04-12T06:19:32.193Z,99.90
2023-04-12T06:21:59.739Z,99.90
2023-04-12T06:24:27.357Z,99.90
2023-04-12T06:26:55.905Z,99.90
2023-04-12T06:29:23.746Z,99.90
2023-04-12T06:31:51.856Z,99.90
2023-04-12T06:34:19.547Z,99.90
2023-04-12T06:36:47.863Z,99.90
2023-04-12T06:39:17.067Z,99.90
2023-04-12T06:41:47.334Z,99.90
2023-04-12T06:44:19.830Z,99.90
2023-04-12T06:46:47.384Z,99.90
2023-04-12T06:49:14.900Z,99.90
2023-04-12T06:51:42.390Z,99.90
2023-04-12T06:54:10.055Z,99.90
2023-04-12T06:56:38.283Z,99.90
2023-04-12T06:59:05.949Z,99.90
2023-04-12T07:01:33.416Z,99.90
2023-04-12T07:04:01.194Z,99.90
2023-04-12T07:06:28.847Z,99.90
2023-04-12T07:08:56.601Z,99.90
2023-04-12T07:11:24.510Z,99.90
2023-04-12T07:13:52.058Z,99.90
2023-04-12T07:16:19.655Z,99.90
2023-04-12T07:18:47.670Z,99.90
2023-04-12T07:21:17.455Z,99.90
2023-04-12T07:23:46.583Z,99.90
2023-04-12T07:26:14.152Z,99.90
2023-04-12T07:28:41.692Z,99.90
2023-04-12T07:31:09.288Z,99.90
2023-04-12T07:33:38.815Z,99.90
2023-04-12T07:36:08.524Z,99.90
2023-04-12T07:38:36.205Z,99.90
2023-04-12T07:41:03.885Z,99.90
2023-04-12T07:43:31.436Z,99.90
2023-04-12T07:45:59.430Z,99.90
2023-04-12T07:48:27.054Z,99.90
2023-04-12T07:50:54.577Z,99.90
2023-04-12T07:53:28.973Z,99.90
2023-04-12T07:55:56.701Z,99.90
2023-04-12T07:58:25.344Z,99.90
2023-04-12T08:00:53.846Z,99.90
2023-04-12T08:03:21.574Z,99.90
2023-04-12T08:05:53.718Z,99.90
2023-04-12T08:08:22.815Z,99.90
2023-04-12T08:10:51.781Z,99.90
2023-04-12T08:13:19.938Z,99.90
2023-04-12T08:15:47.894Z,99.90
2023-04-12T08:18:15.894Z,99.90
2023-04-12T08:20:44.262Z,99.90
2023-04-12T08:23:12.448Z,99.90
2023-04-12T08:25:40.173Z,99.90
2023-04-12T08:28:08.404Z,99.90
2023-04-12T08:30:36.721Z,99.90
2023-04-12T08:33:04.510Z,99.90
2023-04-12T08:35:32.825Z,99.90
2023-04-12T08:38:06.895Z,99.90
2023-04-12T08:40:35.454Z,99.90
2023-04-12T08:43:07.615Z,99.90
2023-04-12T08:45:36.437Z,99.90
2023-04-12T08:48:06.172Z,99.90
2023-04-12T08:50:34.354Z,99.90
2023-04-12T08:53:02.550Z,99.90
2023-04-12T08:55:30.593Z,98.80
2023-04-12T08:57:58.899Z,98.20
2023-04-12T09:00:27.142Z,98.10
2023-04-12T09:02:54.821Z,99.20
2023-04-12T09:05:31.355Z,98.70
2023-04-12T09:07:58.925Z,98.60
2023-04-12T09:10:38.592Z,97.90
2023-04-12T09:13:06.777Z,98.20
2023-04-12T09:15:35.068Z,98.70
2023-04-12T09:18:10.704Z,97.50
2023-04-12T09:20:39.136Z,98.70
2023-04-12T09:23:21.659Z,97.80
2023-04-12T09:25:52.012Z,97.80
2023-04-12T09:28:25.979Z,97.00
2023-04-12T09:30:58.890Z,97.60
2023-04-12T09:33:39.855Z,96.90
2023-04-12T09:36:14.412Z,97.10
2023-04-12T09:38:58.983Z,97.50
2023-04-12T09:41:28.820Z,97.20
2023-04-12T09:43:56.521Z,96.00
2023-04-12T09:46:24.657Z,95.80
2023-04-12T09:48:54.254Z,96.00
2023-04-12T09:51:32.981Z,94.30
2023-04-12T09:54:03.304Z,94.40
2023-04-12T09:56:36.512Z,94.70
2023-04-12T09:59:06.085Z,94.20
2023-04-12T10:01:39.699Z,95.20
2023-04-12T10:04:09.413Z,92.60
2023-04-12T10:06:37.974Z,93.20
2023-04-12T10:09:06.820Z,92.90
2023-04-12T10:11:34.616Z,93.10
2023-04-12T10:14:07.020Z,94.00
2023-04-12T10:16:35.583Z,94.30
2023-04-12T10:19:04.342Z,93.70
2023-04-12T10:21:32.253Z,93.30
2023-04-12T10:24:00.652Z,94.30
2023-04-12T10:26:28.344Z,94.20
2023-04-12T10:29:26.154Z,94.20
2023-04-12T10:31:55.487Z,92.90
2023-04-12T10:34:31.234Z,94.60
2023-04-12T10:36:59.915Z,93.30
2023-04-12T10:39:45.421Z,94.00
2023-04-12T10:42:24.959Z,95.00
2023-04-12T10:44:55.080Z,93.80
2023-04-12T10:47:50.442Z,93.90
2023-04-12T10:50:27.157Z,94.50
2023-04-12T10:53:12.850Z,94.30
2023-04-12T10:55:41.275Z,95.30
2023-04-12T10:58:09.235Z,94.00
2023-04-12T11:00:56.444Z,94.90
2023-04-12T11:03:25.610Z,95.30
2023-04-12T11:06:20.121Z,95.10
2023-04-12T11:09:28.719Z,94.40
2023-04-12T11:11:58.785Z,94.90
2023-04-12T11:14:37.624Z,94.00
2023-04-12T11:17:14.742Z,94.30
2023-04-12T11:19:44.909Z,94.80
2023-04-12T11:22:14.527Z,94.80
2023-04-12T11:24:46.770Z,94.40
2023-04-12T11:27:16.369Z,94.20
2023-04-12T11:29:44.940Z,93.80
2023-04-12T11:32:14.378Z,95.20
2023-04-12T11:34:44.578Z,95.60
2023-04-12T11:37:12.492Z,94.70
2023-04-12T11:39:44.457Z,94.50
2023-04-12T11:42:20.714Z,94.40
2023-04-12T11:44:57.254Z,94.60
2023-04-12T11:47:27.401Z,93.90
2023-04-12T11:49:55.803Z,93.90
2023-04-12T11:52:30.387Z,94.20
2023-04-12T11:55:01.927Z,94.70
2023-04-12T11:57:31.140Z,93.20
2023-04-12T12:00:00.219Z,93.40
2023-04-12T12:02:32.957Z,92.90
2023-04-12T12:05:06.916Z,92.40
2023-04-12T12:07:35.828Z,93.50
2023-04-12T12:10:04.478Z,94.00
2023-04-12T12:12:34.006Z,93.20
2023-04-12T12:15:02.420Z,92.50
2023-04-12T12:17:29.965Z,92.10
2023-04-12T12:19:59.452Z,91.90
2023-04-12T12:22:27.017Z,92.80
2023-04-12T12:24:59.355Z,93.90
2023-04-12T12:27:41.946Z,92.50
2023-04-12T12:30:11.393Z,92.10
2023-04-12T12:32:40.192Z,92.10
2023-04-12T12:35:15.730Z,92.70
2023-04-12T12:37:56.025Z,92.30
2023-04-12T12:40:32.639Z,92.70
2023-04-12T12:43:00.894Z,93.70
2023-04-12T12:45:31.430Z,93.50
2023-04-12T12:48:04.550Z,93.50
2023-04-12T12:50:34.351Z,92.20
2023-04-12T12:53:02.869Z,93.10
2023-04-12T12:55:31.238Z,93.40
2023-04-12T12:58:06.689Z,92.10
2023-04-12T13:00:35.509Z,92.00
2023-04-12T13:03:03.559Z,92.40
2023-04-12T13:05:31.498Z,92.40
2023-04-12T13:07:59.064Z,93.40
2023-04-12T13:10:27.498Z,93.50
2023-04-12T13:12:55.128Z,93.50
2023-04-12T13:15:24.649Z,91.70
2023-04-12T13:17:53.114Z,91.90
2023-04-12T13:20:24.802Z,91.60
2023-04-12T13:22:52.331Z,92.00
2023-04-12T13:25:21.055Z,91.60
2023-04-12T13:27:49.479Z,94.00
2023-04-12T13:30:18.287Z,91.80
2023-04-12T13:32:46.395Z,90.80
2023-04-12T13:35:14.000Z,91.50
2023-04-12T13:37:42.102Z,91.60
2023-04-12T13:40:10.341Z,92.90
2023-04-12T13:42:37.878Z,92.70
2023-04-12T13:45:08.167Z,91.80
2023-04-12T13:47:38.304Z,90.50
2023-04-12T13:50:06.825Z,91.60
2023-04-12T13:52:34.292Z,91.00
2023-04-12T13:55:01.914Z,92.70
2023-04-12T13:57:29.374Z,91.00
2023-04-12T13:59:56.932Z,90.80
2023-04-12T14:02:25.080Z,90.70
2023-04-12T14:04:53.912Z,91.40
2023-04-12T14:07:21.684Z,92.40
2023-04-12T14:09:49.211Z,92.20
2023-04-12T14:12:16.727Z,92.10
2023-04-12T14:14:44.236Z,91.60
2023-04-12T14:17:11.880Z,92.40
2023-04-12T14:19:39.504Z,92.70
2023-04-12T14:22:06.986Z,93.20
2023-04-12T14:24:34.534Z,93.10
2023-04-12T14:27:02.422Z,93.40
2023-04-12T14:29:30.144Z,93.30
2023-04-12T14:31:57.709Z,93.90
2023-04-12T14:34:25.286Z,93.10
2023-04-12T14:36:52.796Z,93.20
2023-04-12T14:39:20.426Z,93.20
2023-04-12T14:41:47.897Z,93.10
2023-04-12T14:44:16.587Z,94.00
2023-04-12T14:46:45.663Z,93.40
2023-04-12T14:49:14.281Z,93.80
2023-04-12T14:51:41.912Z,93.70
2023-04-12T14:54:09.463Z,94.10
2023-04-12T14:56:43.446Z,94.00
2023-04-12T14:59:13.504Z,94.00
2023-04-12T15:01:41.779Z,94.10
2023-04-12T15:04:09.553Z,94.20
2023-04-12T15:06:42.463Z,93.70
2023-04-12T15:09:10.579Z,93.30
2023-04-12T15:11:38.388Z,94.00
2023-04-12T15:14:08.759Z,94.20
2023-04-12T15:16:36.352Z,94.30
2023-04-12T15:19:09.973Z,94.00
2023-04-12T15:21:41.279Z,94.10
2023-04-12T15:24:08.741Z,94.00
2023-04-12T15:26:36.436Z,94.00
2023-04-12T15:29:04.207Z,94.30
2023-04-12T15:31:32.881Z,94.50
2023-04-12T15:34:01.193Z,95.40
2023-04-12T15:36:36.507Z,95.40
2023-04-12T15:39:07.149Z,94.90
2023-04-12T15:41:38.522Z,95.00
2023-04-12T15:44:08.087Z,95.30
2023-04-12T15:46:36.304Z,94.60
2023-04-12T15:49:04.182Z,94.50
2023-04-12T15:51:32.397Z,94.90
2023-04-12T15:54:00.051Z,94.90
2023-04-12T15:56:29.771Z,95.00
2023-04-12T15:58:58.000Z,94.90
2023-04-12T16:01:29.489Z,95.10
2023-04-12T16:03:59.218Z,95.20
2023-04-12T16:06:30.689Z,95.20
2023-04-12T16:08:59.715Z,94.60
2023-04-12T16:11:29.036Z,94.90
2023-04-12T16:13:57.029Z,94.80
2023-04-12T16:16:24.684Z,95.30
2023-04-12T16:18:53.290Z,94.50
2023-04-12T16:21:23.274Z,95.30
2023-04-12T16:23:51.454Z,94.90
2023-04-12T16:26:21.664Z,95.70
2023-04-12T16:28:55.045Z,95.50
2023-04-12T16:31:25.410Z,95.50
2023-04-12T16:33:53.773Z,95.30
2023-04-12T16:36:23.476Z,95.50
2023-04-12T16:38:55.097Z,95.30
2023-04-12T16:41:23.159Z,95.30
2023-04-12T16:43:53.600Z,95.90
2023-04-12T16:46:21.652Z,96.00
2023-04-12T16:48:49.544Z,96.50
2023-04-12T16:51:17.206Z,96.70
2023-04-12T16:53:44.718Z,97.10
2023-04-12T16:56:12.239Z,96.90
2023-04-12T16:58:39.743Z,96.50
2023-04-12T17:01:07.921Z,96.60
2023-04-12T17:03:35.778Z,97.30
2023-04-12T17:06:04.488Z,97.90
2023-04-12T17:08:34.671Z,97.80
2023-04-12T17:11:02.639Z,98.30
2023-04-12T17:13:30.811Z,99.20
2023-04-12T17:15:58.402Z,99.90
2023-04-12T17:18:27.160Z,99.90
2023-04-12T17:20:55.700Z,99.90
2023-04-12T17:23:23.264Z,99.90
2023-04-12T17:25:51.429Z,99.90
2023-04-12T17:28:20.830Z,99.90
2023-04-12T17:30:48.606Z,99.90
2023-04-12T17:33:19.790Z,99.90
2023-04-12T17:35:47.379Z,99.90
2023-04-12T17:38:14.970Z,99.90
2023-04-12T17:40:42.450Z,99.90
2023-04-12T17:43:11.939Z,99.90
2023-04-12T17:45:39.794Z,99.90
2023-04-12T17:48:14.468Z,99.90
2023-04-12T17:50:42.088Z,99.90
2023-04-12T17:53:09.595Z,99.90
2023-04-12T17:55:37.273Z,99.90
2023-04-12T17:58:04.910Z,99.90
2023-04-12T18:00:32.831Z,99.90
2023-04-12T18:03:00.512Z,99.90
2023-04-12T18:05:28.423Z,99.90
2023-04-12T18:07:57.081Z,99.90
2023-04-12T18:10:26.609Z,99.90
2023-04-12T18:12:54.168Z,99.90
2023-04-12T18:15:21.764Z,99.90
2023-04-12T18:17:49.647Z,99.90
2023-04-12T18:20:17.228Z,99.90
2023-04-12T18:22:45.879Z,99.90
2023-04-12T18:25:13.656Z,99.90
2023-04-12T18:27:41.689Z,99.90
2023-04-12T18:30:09.429Z,99.90
2023-04-12T18:32:37.121Z,99.90
2023-04-12T18:35:05.130Z,99.90
2023-04-12T18:37:32.773Z,99.90
2023-04-12T18:40:00.589Z,99.90
2023-04-12T18:42:28.187Z,99.90
2023-04-12T18:44:56.506Z,99.90
2023-04-12T18:47:26.281Z,99.90
2023-04-12T18:49:54.072Z,99.90
2023-04-12T18:52:22.186Z,99.90
2023-04-12T18:54:49.700Z,99.90
2023-04-12T18:57:17.641Z,99.90
2023-04-12T18:59:47.881Z,99.90
2023-04-12T19:02:15.555Z,99.90
2023-04-12T19:04:43.100Z,99.90
2023-04-12T19:07:10.769Z,99.90
2023-04-12T19:09:38.615Z,99.90
2023-04-12T19:12:06.477Z,99.90
2023-04-12T19:14:33.997Z,99.90
2023-04-12T19:17:01.528Z,99.90
2023-04-12T19:19:29.700Z,99.90
2023-04-12T19:21:57.510Z,99.90
2023-04-12T19:24:24.994Z,99.90
2023-04-12T19:26:52.496Z,99.90
2023-04-12T19:29:20.294Z,99.90
2023-04-12T19:31:49.041Z,99.90
2023-04-12T19:34:17.991Z,99.90
2023-04-12T19:36:45.897Z,99.90
2023-04-12T19:39:13.534Z,99.90
2023-04-12T19:41:41.097Z,99.90
2023-04-12T19:44:08.738Z,99.90
2023-04-12T19:46:38.913Z,99.90
2023-04-12T19:49:06.642Z,99.90
2023-04-12T19:51:34.695Z,99.90
2023-04-12T19:54:02.964Z,99.90
2023-04-12T19:56:31.502Z,99.90
2023-04-12T19:58:59.993Z,99.90
2023-04-12T20:01:27.958Z,99.90
2023-04-12T20:03:55.556Z,99.90
2023-04-12T20:06:23.262Z,99.90
2023-04-12T20:08:50.789Z,99.90
2023-04-12T20:11:18.317Z,99.90
2023-04-12T20:13:46.233Z,99.90
2023-04-12T20:16:13.756Z,99.90
2023-04-12T20:18:41.375Z,99.90
2023-04-12T20:21:10.229Z,99.90
2023-04-12T20:23:37.798Z,99.90
2023-04-12T20:26:05.556Z,99.90
2023-04-12T20:28:33.567Z,99.90
2023-04-12T20:31:01.319Z,99.90
2023-04-12T20:33:29.363Z,99.90
2023-04-12T20:35:56.926Z,99.90
2023-04-12T20:38:24.600Z,99.90
2023-04-12T20:40:52.371Z,99.90
2023-04-12T20:43:20.318Z,99.90
2023-04-12T20:45:48.741Z,99.90
2023-04-12T20:48:19.701Z,99.90
2023-04-12T20:50:47.396Z,99.90
2023-04-12T20:53:17.543Z,99.90
2023-04-12T20:55:45.707Z,99.90
2023-04-12T20:58:13.334Z,99.90
2023-04-12T21:00:40.875Z,99.90
2023-04-12T21:03:08.600Z,99.90
2023-04-12T21:05:37.633Z,99.90
2023-04-12T21:08:07.466Z,99.90
2023-04-12T21:10:35.039Z,99.90
2023-04-12T21:13:03.032Z,99.90
2023-04-12T21:15:32.050Z,99.90
2023-04-12T21:17:59.606Z,99.90
2023-04-12T21:20:27.443Z,99.90
2023-04-12T21:22:54.918Z,99.90
2023-04-12T21:25:22.927Z,99.90
2023-04-12T21:27:50.750Z,99.90
2023-04-12T21:30:18.322Z,99.90
2023-04-12T21:32:46.199Z,99.90
2023-04-12T21:35:16.355Z,99.90
2023-04-12T21:37:44.042Z,99.90
2023-04-12T21:40:12.760Z,99.90
2023-04-12T21:42:40.999Z,99.90
2023-04-12T21:45:09.798Z,99.90
2023-04-12T21:47:40.212Z,99.90
2023-04-12T21:50:11.841Z,99.90
2023-04-12T21:52:41.133Z,99.90
2023-04-12T21:55:08.823Z,99.90
2023-04-12T21:57:36.490Z,99.90
2023-04-12T22:00:09.918Z,99.90
2023-04-12T22:02:40.922Z,99.90
2023-04-12T22:05:08.980Z,99.90
2023-04-12T22:07:41.010Z,99.90
2023-04-12T22:10:10.048Z,99.90
2023-04-12T22:12:38.732Z,99.90
2023-04-12T22:15:06.719Z,99.90
2023-04-12T22:17:34.399Z,99.90
2023-04-12T22:20:01.932Z,99.90
2023-04-12T22:22:29.890Z,99.90
2023-04-12T22:24:57.422Z,99.90
2023-04-12T22:27:26.629Z,99.90
2023-04-12T22:29:54.247Z,99.90
2023-04-12T22:32:21.955Z,99.90
2023-04-12T22:34:57.915Z,99.90
2023-04-12T22:37:35.140Z,99.90
2023-04-12T22:40:05.032Z,99.90
2023-04-12T22:42:32.693Z,99.90
2023-04-12T22:45:00.250Z,99.90
2023-04-12T22:47:28.793Z,99.90
2023-04-12T22:49:58.258Z,99.90
2023-04-12T22:52:26.147Z,99.90
2023-04-12T22:54:53.734Z,99.90
2023-04-12T22:57:21.243Z,99.90
2023-04-12T22:59:48.727Z,99.90
2023-04-12T23:02:16.915Z,99.90
2023-04-12T23:04:48.840Z,99.90
2023-04-12T23:07:17.175Z,99.90
2023-04-12T23:09:45.555Z,99.90
2023-04-12T23:12:13.669Z,99.90
2023-04-12T23:14:41.230Z,99.90
2023-04-12T23:17:08.740Z,99.90
2023-04-12T23:19:36.386Z,99.90
2023-04-12T23:22:05.165Z,99.90
2023-04-12T23:24:32.797Z,99.90
2023-04-12T23:27:00.476Z,99.90
2023-04-12T23:29:27.983Z,99.90
2023-04-12T23:31:55.624Z,99.90
2023-04-12T23:34:23.124Z,99.90
2023-04-12T23:36:50.731Z,99.90
2023-04-12T23:39:18.288Z,99.90
2023-04-12T23:41:46.651Z,99.90
2023-04-12T23:44:14.679Z,99.90
2023-04-12T23:46:42.580Z,99.90
2023-04-12T23:49:10.190Z,99.90
2023-04-12T23:51:37.940Z,99.90
2023-04-12T23:54:05.583Z,99.90
2023-04-12T23:56:33.159Z,99.90
2023-04-12T23:59:01.076Z,99.90
